Terminal Aerodrome Forecast
Issued by NWS

Home | Current Version | Previous Version | Text Only | Print | Product List | Glossary Off
Versions: 1 2 3 4 5 6 7 8 9 10 11 12 13 14 15 16 17 18 19 20 21 22 23 24 25 26 27 28

000
FTUS43 KLOT 041005 AAB
TAFMDW
TAF AMD
KMDW 041005Z 0410/0506 35012G18KT P6SM VCSH SCT007 OVC012
      TEMPO 0410/0412 5SM -SHRA
     FM041200 36014G20KT P6SM SCT012 OVC018
     FM042000 01016G24KT P6SM VCSH BKN035
     FM050000 01011G16KT P6SM SCT040=

USA.gov is the U.S. government's official web portal to all federal, state and local government web resources and services.